sensor_id;sensor_type;location;lat;lon;timestamp;P1;durP1;ratioP1;P2;durP2;ratioP2
27618;SDS011;15039;50.830;4.730;2023-11-18T00:00:18;15.00;;;11.70;;
27618;SDS011;15039;50.830;4.730;2023-11-18T00:02:47;18.10;;;11.82;;
27618;SDS011;15039;50.830;4.730;2023-11-18T00:05:12;19.83;;;11.98;;
27618;SDS011;15039;50.830;4.730;2023-11-18T00:07:42;20.60;;;11.10;;
27618;SDS011;15039;50.830;4.730;2023-11-18T00:10:08;21.27;;;11.27;;
27618;SDS011;15039;50.830;4.730;2023-11-18T00:12:35;16.33;;;11.73;;
27618;SDS011;15039;50.830;4.730;2023-11-18T00:15:01;19.75;;;11.07;;
27618;SDS011;15039;50.830;4.730;2023-11-18T00:17:29;17.33;;;10.48;;
27618;SDS011;15039;50.830;4.730;2023-11-18T00:19:55;18.83;;;11.60;;
27618;SDS011;15039;50.830;4.730;2023-11-18T00:22:21;21.30;;;11.65;;
27618;SDS011;15039;50.830;4.730;2023-11-18T00:24:47;19.02;;;11.07;;
27618;SDS011;15039;50.830;4.730;2023-11-18T00:27:13;16.98;;;11.02;;
27618;SDS011;15039;50.830;4.730;2023-11-18T00:29:40;19.33;;;10.27;;
27618;SDS011;15039;50.830;4.730;2023-11-18T00:32:06;20.15;;;11.20;;
27618;SDS011;15039;50.830;4.730;2023-11-18T00:34:32;21.30;;;11.50;;
27618;SDS011;15039;50.830;4.730;2023-11-18T00:36:58;19.95;;;10.50;;
27618;SDS011;15039;50.830;4.730;2023-11-18T00:39:24;17.45;;;10.60;;
27618;SDS011;15039;50.830;4.730;2023-11-18T00:41:50;18.88;;;10.73;;
27618;SDS011;15039;50.830;4.730;2023-11-18T00:44:16;16.02;;;10.20;;
27618;SDS011;15039;50.830;4.730;2023-11-18T00:46:43;20.15;;;10.95;;
27618;SDS011;15039;50.830;4.730;2023-11-18T00:49:08;22.23;;;10.60;;
27618;SDS011;15039;50.830;4.730;2023-11-18T00:51:35;19.02;;;10.73;;
27618;SDS011;15039;50.830;4.730;2023-11-18T00:54:02;14.75;;;10.15;;
27618;SDS011;15039;50.830;4.730;2023-11-18T00:56:30;16.20;;;10.60;;
27618;SDS011;15039;50.830;4.730;2023-11-18T00:58:59;18.75;;;10.25;;
27618;SDS011;15039;50.830;4.730;2023-11-18T01:01:26;18.80;;;10.15;;
27618;SDS011;15039;50.830;4.730;2023-11-18T01:03:52;13.48;;;9.52;;
27618;SDS011;15039;50.830;4.730;2023-11-18T01:06:18;18.58;;;9.60;;
27618;SDS011;15039;50.830;4.730;2023-11-18T01:08:44;17.33;;;9.35;;
27618;SDS011;15039;50.830;4.730;2023-11-18T01:11:12;15.25;;;10.10;;
27618;SDS011;15039;50.830;4.730;2023-11-18T01:13:43;19.38;;;9.75;;
27618;SDS011;15039;50.830;4.730;2023-11-18T01:16:12;15.77;;;8.43;;
27618;SDS011;15039;50.830;4.730;2023-11-18T01:18:39;15.10;;;8.65;;
27618;SDS011;15039;50.830;4.730;2023-11-18T01:21:05;14.50;;;8.10;;
27618;SDS011;15039;50.830;4.730;2023-11-18T01:23:33;16.45;;;8.65;;
27618;SDS011;15039;50.830;4.730;2023-11-18T01:26:00;16.13;;;9.10;;
27618;SDS011;15039;50.830;4.730;2023-11-18T01:28:25;14.57;;;8.55;;
27618;SDS011;15039;50.830;4.730;2023-11-18T01:30:53;13.88;;;8.35;;
27618;SDS011;15039;50.830;4.730;2023-11-18T01:33:19;13.88;;;7.60;;
27618;SDS011;15039;50.830;4.730;2023-11-18T01:35:45;15.57;;;7.70;;
27618;SDS011;15039;50.830;4.730;2023-11-18T01:38:10;13.18;;;7.90;;
27618;SDS011;15039;50.830;4.730;2023-11-18T01:40:37;11.27;;;7.95;;
27618;SDS011;15039;50.830;4.730;2023-11-18T01:43:03;10.43;;;7.22;;
27618;SDS011;15039;50.830;4.730;2023-11-18T01:45:37;9.75;;;7.65;;
27618;SDS011;15039;50.830;4.730;2023-11-18T01:48:03;13.10;;;7.65;;
27618;SDS011;15039;50.830;4.730;2023-11-18T01:50:30;12.50;;;7.93;;
27618;SDS011;15039;50.830;4.730;2023-11-18T01:52:56;9.82;;;7.13;;
27618;SDS011;15039;50.830;4.730;2023-11-18T01:55:22;13.15;;;7.60;;
27618;SDS011;15039;50.830;4.730;2023-11-18T01:57:48;12.75;;;8.45;;
27618;SDS011;15039;50.830;4.730;2023-11-18T02:00:16;12.57;;;7.30;;
27618;SDS011;15039;50.830;4.730;2023-11-18T02:02:42;13.98;;;7.80;;
27618;SDS011;15039;50.830;4.730;2023-11-18T02:05:08;11.38;;;7.05;;
27618;SDS011;15039;50.830;4.730;2023-11-18T02:07:37;13.40;;;6.50;;
27618;SDS011;15039;50.830;4.730;2023-11-18T02:10:04;13.75;;;7.43;;
27618;SDS011;15039;50.830;4.730;2023-11-18T02:12:37;11.88;;;6.85;;
27618;SDS011;15039;50.830;4.730;2023-11-18T02:15:09;9.50;;;6.60;;
27618;SDS011;15039;50.830;4.730;2023-11-18T02:17:38;13.53;;;7.17;;
27618;SDS011;15039;50.830;4.730;2023-11-18T02:20:04;11.77;;;7.22;;
27618;SDS011;15039;50.830;4.730;2023-11-18T02:22:41;12.25;;;6.90;;
27618;SDS011;15039;50.830;4.730;2023-11-18T02:25:09;10.38;;;7.03;;
27618;SDS011;15039;50.830;4.730;2023-11-18T02:27:36;11.75;;;7.43;;
27618;SDS011;15039;50.830;4.730;2023-11-18T02:30:02;11.77;;;6.82;;
27618;SDS011;15039;50.830;4.730;2023-11-18T02:32:44;16.33;;;7.50;;
27618;SDS011;15039;50.830;4.730;2023-11-18T02:38:06;8.95;;;7.07;;
27618;SDS011;15039;50.830;4.730;2023-11-18T02:40:39;8.82;;;7.10;;
27618;SDS011;15039;50.830;4.730;2023-11-18T02:43:08;12.63;;;7.05;;
27618;SDS011;15039;50.830;4.730;2023-11-18T02:45:35;7.82;;;5.78;;
27618;SDS011;15039;50.830;4.730;2023-11-18T02:48:02;9.07;;;5.88;;
27618;SDS011;15039;50.830;4.730;2023-11-18T02:50:29;14.77;;;6.57;;
27618;SDS011;15039;50.830;4.730;2023-11-18T02:52:55;8.80;;;5.85;;
27618;SDS011;15039;50.830;4.730;2023-11-18T02:55:21;12.45;;;6.18;;
27618;SDS011;15039;50.830;4.730;2023-11-18T02:57:48;11.30;;;5.75;;
27618;SDS011;15039;50.830;4.730;2023-11-18T03:00:14;10.10;;;5.68;;
27618;SDS011;15039;50.830;4.730;2023-11-18T03:02:46;9.82;;;4.70;;
27618;SDS011;15039;50.830;4.730;2023-11-18T03:05:13;8.73;;;4.72;;
27618;SDS011;15039;50.830;4.730;2023-11-18T03:07:46;7.50;;;4.82;;
27618;SDS011;15039;50.830;4.730;2023-11-18T03:10:18;8.55;;;4.80;;
27618;SDS011;15039;50.830;4.730;2023-11-18T03:12:48;8.43;;;4.57;;
27618;SDS011;15039;50.830;4.730;2023-11-18T03:15:14;8.25;;;4.13;;
27618;SDS011;15039;50.830;4.730;2023-11-18T03:17:44;7.38;;;4.38;;
27618;SDS011;15039;50.830;4.730;2023-11-18T03:20:10;16.17;;;5.28;;
27618;SDS011;15039;50.830;4.730;2023-11-18T03:25:05;9.02;;;4.47;;
27618;SDS011;15039;50.830;4.730;2023-11-18T03:27:32;11.70;;;4.07;;
27618;SDS011;15039;50.830;4.730;2023-11-18T03:29:58;10.15;;;3.90;;
27618;SDS011;15039;50.830;4.730;2023-11-18T03:32:24;10.30;;;4.65;;
27618;SDS011;15039;50.830;4.730;2023-11-18T03:34:49;10.02;;;4.30;;
27618;SDS011;15039;50.830;4.730;2023-11-18T03:37:15;7.30;;;3.83;;
27618;SDS011;15039;50.830;4.730;2023-11-18T03:39:41;9.80;;;4.03;;
27618;SDS011;15039;50.830;4.730;2023-11-18T03:42:06;9.20;;;3.72;;
27618;SDS011;15039;50.830;4.730;2023-11-18T03:44:33;7.53;;;3.92;;
27618;SDS011;15039;50.830;4.730;2023-11-18T03:46:59;5.85;;;3.72;;
27618;SDS011;15039;50.830;4.730;2023-11-18T03:49:24;9.40;;;3.80;;
27618;SDS011;15039;50.830;4.730;2023-11-18T03:51:50;9.00;;;3.78;;
27618;SDS011;15039;50.830;4.730;2023-11-18T03:54:16;7.65;;;4.10;;
27618;SDS011;15039;50.830;4.730;2023-11-18T03:56:41;9.52;;;3.72;;
27618;SDS011;15039;50.830;4.730;2023-11-18T03:59:07;8.90;;;3.33;;
27618;SDS011;15039;50.830;4.730;2023-11-18T04:01:34;7.93;;;3.15;;
27618;SDS011;15039;50.830;4.730;2023-11-18T04:03:59;6.70;;;2.95;;
27618;SDS011;15039;50.830;4.730;2023-11-18T04:06:25;9.80;;;3.05;;
27618;SDS011;15039;50.830;4.730;2023-11-18T04:08:51;6.28;;;2.80;;
27618;SDS011;15039;50.830;4.730;2023-11-18T04:11:16;5.68;;;2.72;;
27618;SDS011;15039;50.830;4.730;2023-11-18T04:13:43;6.82;;;2.85;;
27618;SDS011;15039;50.830;4.730;2023-11-18T04:16:12;6.07;;;2.45;;
27618;SDS011;15039;50.830;4.730;2023-11-18T04:18:40;5.65;;;2.65;;
27618;SDS011;15039;50.830;4.730;2023-11-18T04:21:11;5.03;;;2.67;;
27618;SDS011;15039;50.830;4.730;2023-11-18T04:23:38;6.15;;;2.42;;
27618;SDS011;15039;50.830;4.730;2023-11-18T04:26:05;5.78;;;2.88;;
27618;SDS011;15039;50.830;4.730;2023-11-18T04:28:32;7.80;;;2.65;;
27618;SDS011;15039;50.830;4.730;2023-11-18T04:30:58;7.97;;;3.53;;
27618;SDS011;15039;50.830;4.730;2023-11-18T04:33:24;7.32;;;2.63;;
27618;SDS011;15039;50.830;4.730;2023-11-18T04:35:50;4.82;;;2.25;;
27618;SDS011;15039;50.830;4.730;2023-11-18T04:38:19;5.05;;;2.28;;
27618;SDS011;15039;50.830;4.730;2023-11-18T04:40:45;7.05;;;2.30;;
27618;SDS011;15039;50.830;4.730;2023-11-18T04:43:11;5.13;;;2.28;;
27618;SDS011;15039;50.830;4.730;2023-11-18T04:45:37;5.05;;;2.10;;
27618;SDS011;15039;50.830;4.730;2023-11-18T04:48:04;5.45;;;2.30;;
27618;SDS011;15039;50.830;4.730;2023-11-18T04:50:30;8.63;;;2.42;;
27618;SDS011;15039;50.830;4.730;2023-11-18T04:52:57;9.60;;;2.28;;
27618;SDS011;15039;50.830;4.730;2023-11-18T04:55:23;11.25;;;2.47;;
27618;SDS011;15039;50.830;4.730;2023-11-18T04:57:51;7.28;;;2.35;;
27618;SDS011;15039;50.830;4.730;2023-11-18T05:00:17;5.90;;;2.28;;
27618;SDS011;15039;50.830;4.730;2023-11-18T05:02:44;5.32;;;2.72;;
27618;SDS011;15039;50.830;4.730;2023-11-18T05:05:13;6.70;;;2.50;;
27618;SDS011;15039;50.830;4.730;2023-11-18T05:07:40;5.82;;;2.63;;
27618;SDS011;15039;50.830;4.730;2023-11-18T05:10:07;6.45;;;1.92;;
27618;SDS011;15039;50.830;4.730;2023-11-18T05:12:34;9.82;;;2.00;;
27618;SDS011;15039;50.830;4.730;2023-11-18T05:15:00;4.15;;;2.08;;
27618;SDS011;15039;50.830;4.730;2023-11-18T05:17:26;6.65;;;2.13;;
27618;SDS011;15039;50.830;4.730;2023-11-18T05:19:52;5.10;;;1.67;;
27618;SDS011;15039;50.830;4.730;2023-11-18T05:22:19;5.72;;;1.73;;
27618;SDS011;15039;50.830;4.730;2023-11-18T05:24:45;7.25;;;1.90;;
27618;SDS011;15039;50.830;4.730;2023-11-18T05:27:13;6.70;;;2.58;;
27618;SDS011;15039;50.830;4.730;2023-11-18T05:29:39;2.45;;;1.58;;
27618;SDS011;15039;50.830;4.730;2023-11-18T05:32:06;8.38;;;1.88;;
27618;SDS011;15039;50.830;4.730;2023-11-18T05:34:32;3.05;;;1.17;;
27618;SDS011;15039;50.830;4.730;2023-11-18T05:37:00;6.05;;;2.22;;
27618;SDS011;15039;50.830;4.730;2023-11-18T05:39:26;4.15;;;1.50;;
27618;SDS011;15039;50.830;4.730;2023-11-18T05:44:24;5.82;;;1.55;;
27618;SDS011;15039;50.830;4.730;2023-11-18T05:46:58;9.20;;;2.20;;
27618;SDS011;15039;50.830;4.730;2023-11-18T05:49:24;5.32;;;1.67;;
27618;SDS011;15039;50.830;4.730;2023-11-18T05:51:50;6.40;;;1.60;;
27618;SDS011;15039;50.830;4.730;2023-11-18T05:54:16;3.70;;;1.58;;
27618;SDS011;15039;50.830;4.730;2023-11-18T05:56:43;4.80;;;1.52;;
27618;SDS011;15039;50.830;4.730;2023-11-18T05:59:09;6.25;;;1.45;;
27618;SDS011;15039;50.830;4.730;2023-11-18T06:01:35;5.70;;;1.67;;
27618;SDS011;15039;50.830;4.730;2023-11-18T06:04:04;4.15;;;1.40;;
27618;SDS011;15039;50.830;4.730;2023-11-18T06:06:33;2.87;;;1.40;;
27618;SDS011;15039;50.830;4.730;2023-11-18T06:08:59;3.15;;;1.50;;
27618;SDS011;15039;50.830;4.730;2023-11-18T06:11:29;3.78;;;1.45;;
27618;SDS011;15039;50.830;4.730;2023-11-18T06:13:58;6.22;;;1.40;;
27618;SDS011;15039;50.830;4.730;2023-11-18T06:16:24;4.57;;;1.45;;
27618;SDS011;15039;50.830;4.730;2023-11-18T06:18:51;6.05;;;1.70;;
27618;SDS011;15039;50.830;4.730;2023-11-18T06:21:22;5.20;;;1.40;;
27618;SDS011;15039;50.830;4.730;2023-11-18T06:23:55;2.22;;;1.25;;
27618;SDS011;15039;50.830;4.730;2023-11-18T06:26:22;4.25;;;1.35;;
27618;SDS011;15039;50.830;4.730;2023-11-18T06:28:52;3.15;;;1.30;;
27618;SDS011;15039;50.830;4.730;2023-11-18T06:31:19;3.08;;;1.40;;
27618;SDS011;15039;50.830;4.730;2023-11-18T06:33:45;4.78;;;1.48;;
27618;SDS011;15039;50.830;4.730;2023-11-18T06:38:42;8.60;;;1.58;;
27618;SDS011;15039;50.830;4.730;2023-11-18T06:41:12;2.90;;;1.38;;
27618;SDS011;15039;50.830;4.730;2023-11-18T06:43:41;5.35;;;1.55;;
27618;SDS011;15039;50.830;4.730;2023-11-18T06:46:25;3.33;;;1.45;;
27618;SDS011;15039;50.830;4.730;2023-11-18T06:48:54;5.15;;;1.60;;
27618;SDS011;15039;50.830;4.730;2023-11-18T06:51:26;7.60;;;1.70;;
27618;SDS011;15039;50.830;4.730;2023-11-18T06:53:55;3.15;;;1.40;;
27618;SDS011;15039;50.830;4.730;2023-11-18T06:56:25;4.30;;;1.65;;
27618;SDS011;15039;50.830;4.730;2023-11-18T06:58:52;5.30;;;1.80;;
27618;SDS011;15039;50.830;4.730;2023-11-18T07:01:18;3.95;;;1.23;;
27618;SDS011;15039;50.830;4.730;2023-11-18T07:03:44;8.32;;;2.15;;
27618;SDS011;15039;50.830;4.730;2023-11-18T07:06:19;3.95;;;1.63;;
27618;SDS011;15039;50.830;4.730;2023-11-18T07:08:49;2.45;;;1.48;;
27618;SDS011;15039;50.830;4.730;2023-11-18T07:11:18;2.67;;;1.70;;
27618;SDS011;15039;50.830;4.730;2023-11-18T07:13:44;4.60;;;1.52;;
27618;SDS011;15039;50.830;4.730;2023-11-18T07:16:12;5.22;;;2.25;;
27618;SDS011;15039;50.830;4.730;2023-11-18T07:18:39;4.43;;;1.80;;
27618;SDS011;15039;50.830;4.730;2023-11-18T07:21:07;3.78;;;1.30;;
27618;SDS011;15039;50.830;4.730;2023-11-18T07:23:34;4.55;;;1.90;;
27618;SDS011;15039;50.830;4.730;2023-11-18T07:26:00;5.05;;;1.60;;
27618;SDS011;15039;50.830;4.730;2023-11-18T07:28:28;3.05;;;1.67;;
27618;SDS011;15039;50.830;4.730;2023-11-18T07:30:54;6.53;;;1.67;;
27618;SDS011;15039;50.830;4.730;2023-11-18T07:33:20;8.25;;;1.75;;
27618;SDS011;15039;50.830;4.730;2023-11-18T07:35:46;5.75;;;1.70;;
27618;SDS011;15039;50.830;4.730;2023-11-18T07:38:13;5.00;;;1.35;;
27618;SDS011;15039;50.830;4.730;2023-11-18T07:40:40;6.57;;;1.98;;
27618;SDS011;15039;50.830;4.730;2023-11-18T07:43:10;3.13;;;1.55;;
27618;SDS011;15039;50.830;4.730;2023-11-18T07:45:37;4.57;;;1.77;;
27618;SDS011;15039;50.830;4.730;2023-11-18T07:48:04;5.72;;;1.85;;
27618;SDS011;15039;50.830;4.730;2023-11-18T07:50:36;6.40;;;1.80;;
27618;SDS011;15039;50.830;4.730;2023-11-18T07:53:05;7.63;;;1.90;;
27618;SDS011;15039;50.830;4.730;2023-11-18T07:55:32;6.50;;;1.90;;
27618;SDS011;15039;50.830;4.730;2023-11-18T07:58:02;6.70;;;2.13;;
27618;SDS011;15039;50.830;4.730;2023-11-18T08:00:29;6.38;;;2.45;;
27618;SDS011;15039;50.830;4.730;2023-11-18T08:05:25;6.05;;;2.00;;
27618;SDS011;15039;50.830;4.730;2023-11-18T08:07:51;4.10;;;2.25;;
27618;SDS011;15039;50.830;4.730;2023-11-18T08:10:18;5.95;;;2.15;;
27618;SDS011;15039;50.830;4.730;2023-11-18T08:12:44;9.63;;;2.20;;
27618;SDS011;15039;50.830;4.730;2023-11-18T08:15:11;4.13;;;1.83;;
27618;SDS011;15039;50.830;4.730;2023-11-18T08:17:37;5.22;;;2.30;;
27618;SDS011;15039;50.830;4.730;2023-11-18T08:20:03;5.85;;;2.17;;
27618;SDS011;15039;50.830;4.730;2023-11-18T08:22:38;3.47;;;1.75;;
27618;SDS011;15039;50.830;4.730;2023-11-18T08:25:09;5.22;;;2.10;;
27618;SDS011;15039;50.830;4.730;2023-11-18T08:27:36;8.27;;;2.30;;
27618;SDS011;15039;50.830;4.730;2023-11-18T08:30:02;9.43;;;2.55;;
27618;SDS011;15039;50.830;4.730;2023-11-18T08:32:35;4.38;;;2.00;;
27618;SDS011;15039;50.830;4.730;2023-11-18T08:35:02;5.13;;;2.22;;
27618;SDS011;15039;50.830;4.730;2023-11-18T08:37:29;5.40;;;2.55;;
27618;SDS011;15039;50.830;4.730;2023-11-18T08:39:54;5.72;;;2.63;;
27618;SDS011;15039;50.830;4.730;2023-11-18T08:42:21;7.90;;;2.78;;
27618;SDS011;15039;50.830;4.730;2023-11-18T08:44:47;5.43;;;2.15;;
27618;SDS011;15039;50.830;4.730;2023-11-18T08:47:13;5.47;;;2.72;;
27618;SDS011;15039;50.830;4.730;2023-11-18T08:49:42;9.27;;;2.80;;
27618;SDS011;15039;50.830;4.730;2023-11-18T08:52:11;8.32;;;3.25;;
27618;SDS011;15039;50.830;4.730;2023-11-18T08:54:39;6.63;;;3.08;;
27618;SDS011;15039;50.830;4.730;2023-11-18T08:57:26;3.70;;;2.63;;
27618;SDS011;15039;50.830;4.730;2023-11-18T08:59:51;5.20;;;2.13;;
27618;SDS011;15039;50.830;4.730;2023-11-18T09:02:17;9.40;;;3.03;;
27618;SDS011;15039;50.830;4.730;2023-11-18T09:04:48;5.18;;;2.35;;
27618;SDS011;15039;50.830;4.730;2023-11-18T09:07:14;6.68;;;2.67;;
27618;SDS011;15039;50.830;4.730;2023-11-18T09:09:41;10.27;;;3.10;;
27618;SDS011;15039;50.830;4.730;2023-11-18T09:12:06;6.60;;;2.67;;
27618;SDS011;15039;50.830;4.730;2023-11-18T09:14:33;8.82;;;2.75;;
27618;SDS011;15039;50.830;4.730;2023-11-18T09:16:59;4.95;;;2.58;;
27618;SDS011;15039;50.830;4.730;2023-11-18T09:19:27;8.50;;;3.25;;
27618;SDS011;15039;50.830;4.730;2023-11-18T09:21:52;4.45;;;2.70;;
27618;SDS011;15039;50.830;4.730;2023-11-18T09:24:19;4.15;;;2.63;;
27618;SDS011;15039;50.830;4.730;2023-11-18T09:26:46;3.63;;;2.28;;
27618;SDS011;15039;50.830;4.730;2023-11-18T09:31:43;6.32;;;2.65;;
27618;SDS011;15039;50.830;4.730;2023-11-18T09:34:17;7.60;;;3.08;;
27618;SDS011;15039;50.830;4.730;2023-11-18T09:36:48;6.88;;;2.80;;
27618;SDS011;15039;50.830;4.730;2023-11-18T09:39:14;4.10;;;2.60;;
27618;SDS011;15039;50.830;4.730;2023-11-18T09:41:54;6.07;;;2.72;;
27618;SDS011;15039;50.830;4.730;2023-11-18T09:44:22;4.05;;;2.70;;
27618;SDS011;15039;50.830;4.730;2023-11-18T09:46:54;6.13;;;3.38;;
27618;SDS011;15039;50.830;4.730;2023-11-18T09:49:29;6.30;;;2.90;;
27618;SDS011;15039;50.830;4.730;2023-11-18T09:52:05;4.85;;;2.97;;
27618;SDS011;15039;50.830;4.730;2023-11-18T10:02:51;3.95;;;2.72;;
27618;SDS011;15039;50.830;4.730;2023-11-18T10:05:19;5.68;;;3.03;;
27618;SDS011;15039;50.830;4.730;2023-11-18T10:07:51;8.05;;;3.10;;
27618;SDS011;15039;50.830;4.730;2023-11-18T10:10:19;5.80;;;2.78;;
27618;SDS011;15039;50.830;4.730;2023-11-18T10:12:50;3.63;;;2.78;;
27618;SDS011;15039;50.830;4.730;2023-11-18T10:15:23;5.03;;;2.78;;
27618;SDS011;15039;50.830;4.730;2023-11-18T10:17:50;3.13;;;2.83;;
27618;SDS011;15039;50.830;4.730;2023-11-18T10:23:10;4.43;;;2.63;;
27618;SDS011;15039;50.830;4.730;2023-11-18T10:28:25;3.60;;;2.75;;
27618;SDS011;15039;50.830;4.730;2023-11-18T10:30:57;7.03;;;3.38;;
27618;SDS011;15039;50.830;4.730;2023-11-18T10:33:28;6.82;;;3.03;;
27618;SDS011;15039;50.830;4.730;2023-11-18T10:36:01;6.53;;;3.03;;
27618;SDS011;15039;50.830;4.730;2023-11-18T10:38:32;4.53;;;3.50;;
27618;SDS011;15039;50.830;4.730;2023-11-18T10:41:04;6.70;;;3.08;;
27618;SDS011;15039;50.830;4.730;2023-11-18T10:43:30;4.15;;;2.92;;
27618;SDS011;15039;50.830;4.730;2023-11-18T10:46:10;4.78;;;3.13;;
27618;SDS011;15039;50.830;4.730;2023-11-18T10:48:48;5.43;;;3.08;;
27618;SDS011;15039;50.830;4.730;2023-11-18T10:51:18;5.05;;;2.88;;
27618;SDS011;15039;50.830;4.730;2023-11-18T10:53:49;3.53;;;2.38;;
27618;SDS011;15039;50.830;4.730;2023-11-18T10:56:24;3.08;;;2.55;;
27618;SDS011;15039;50.830;4.730;2023-11-18T10:58:56;3.58;;;2.10;;
27618;SDS011;15039;50.830;4.730;2023-11-18T11:01:33;2.47;;;2.03;;
27618;SDS011;15039;50.830;4.730;2023-11-18T11:04:11;3.88;;;2.80;;
27618;SDS011;15039;50.830;4.730;2023-11-18T11:09:09;4.75;;;2.47;;
27618;SDS011;15039;50.830;4.730;2023-11-18T11:11:45;3.90;;;2.22;;
27618;SDS011;15039;50.830;4.730;2023-11-18T11:14:14;2.85;;;1.92;;
27618;SDS011;15039;50.830;4.730;2023-11-18T11:16:45;4.50;;;2.25;;
27618;SDS011;15039;50.830;4.730;2023-11-18T11:22:05;4.93;;;2.05;;
27618;SDS011;15039;50.830;4.730;2023-11-18T11:24:40;3.10;;;2.20;;
27618;SDS011;15039;50.830;4.730;2023-11-18T11:27:17;2.25;;;1.75;;
27618;SDS011;15039;50.830;4.730;2023-11-18T11:30:08;4.05;;;1.95;;
27618;SDS011;15039;50.830;4.730;2023-11-18T11:35:27;5.38;;;2.10;;
27618;SDS011;15039;50.830;4.730;2023-11-18T11:37:57;2.10;;;1.75;;
27618;SDS011;15039;50.830;4.730;2023-11-18T11:40:32;3.88;;;1.60;;
27618;SDS011;15039;50.830;4.730;2023-11-18T11:43:01;2.95;;;1.60;;
27618;SDS011;15039;50.830;4.730;2023-11-18T11:45:31;2.05;;;1.85;;
27618;SDS011;15039;50.830;4.730;2023-11-18T11:47:58;5.88;;;1.95;;
27618;SDS011;15039;50.830;4.730;2023-11-18T11:54:29;2.28;;;1.40;;
27618;SDS011;15039;50.830;4.730;2023-11-18T11:56:48;10.05;;;1.52;;
27618;SDS011;15039;50.830;4.730;2023-11-18T12:02:10;1.88;;;1.15;;
27618;SDS011;15039;50.830;4.730;2023-11-18T12:04:45;2.38;;;1.20;;
27618;SDS011;15039;50.830;4.730;2023-11-18T12:07:12;1.27;;;1.08;;
27618;SDS011;15039;50.830;4.730;2023-11-18T12:12:18;1.15;;;0.98;;
27618;SDS011;15039;50.830;4.730;2023-11-18T12:17:23;1.30;;;1.20;;
27618;SDS011;15039;50.830;4.730;2023-11-18T12:19:53;1.08;;;0.98;;
27618;SDS011;15039;50.830;4.730;2023-11-18T12:22:23;2.03;;;1.00;;
27618;SDS011;15039;50.830;4.730;2023-11-18T12:30:09;1.63;;;1.00;;
27618;SDS011;15039;50.830;4.730;2023-11-18T12:33:21;0.70;;;0.70;;
27618;SDS011;15039;50.830;4.730;2023-11-18T12:44:25;0.82;;;0.70;;
27618;SDS011;15039;50.830;4.730;2023-11-18T12:47:17;3.33;;;1.00;;
27618;SDS011;15039;50.830;4.730;2023-11-18T12:49:55;0.82;;;0.60;;
27618;SDS011;15039;50.830;4.730;2023-11-18T12:52:21;1.05;;;0.80;;
27618;SDS011;15039;50.830;4.730;2023-11-18T12:54:48;0.70;;;0.70;;
27618;SDS011;15039;50.830;4.730;2023-11-18T12:57:22;1.30;;;0.80;;
27618;SDS011;15039;50.830;4.730;2023-11-18T12:59:56;0.80;;;0.60;;
27618;SDS011;15039;50.830;4.730;2023-11-18T13:02:23;0.60;;;0.60;;
27618;SDS011;15039;50.830;4.730;2023-11-18T13:04:50;2.47;;;0.93;;
27618;SDS011;15039;50.830;4.730;2023-11-18T13:07:21;0.50;;;0.50;;
27618;SDS011;15039;50.830;4.730;2023-11-18T13:09:51;2.25;;;0.50;;
27618;SDS011;15039;50.830;4.730;2023-11-18T13:12:19;0.40;;;0.40;;
27618;SDS011;15039;50.830;4.730;2023-11-18T13:17:16;1.80;;;0.60;;
27618;SDS011;15039;50.830;4.730;2023-11-18T13:19:43;0.60;;;0.43;;
27618;SDS011;15039;50.830;4.730;2023-11-18T13:22:12;2.25;;;0.52;;
27618;SDS011;15039;50.830;4.730;2023-11-18T13:24:40;0.60;;;0.60;;
27618;SDS011;15039;50.830;4.730;2023-11-18T13:27:09;1.85;;;0.60;;
27618;SDS011;15039;50.830;4.730;2023-11-18T13:29:37;0.73;;;0.45;;
27618;SDS011;15039;50.830;4.730;2023-11-18T13:32:06;0.60;;;0.60;;
27618;SDS011;15039;50.830;4.730;2023-11-18T13:34:35;0.60;;;0.60;;
27618;SDS011;15039;50.830;4.730;2023-11-18T13:37:07;1.77;;;0.57;;
27618;SDS011;15039;50.830;4.730;2023-11-18T13:39:37;0.50;;;0.50;;
27618;SDS011;15039;50.830;4.730;2023-11-18T13:42:22;0.50;;;0.50;;
27618;SDS011;15039;50.830;4.730;2023-11-18T13:44:49;1.38;;;0.57;;
27618;SDS011;15039;50.830;4.730;2023-11-18T13:47:19;0.50;;;0.50;;
27618;SDS011;15039;50.830;4.730;2023-11-18T13:49:48;0.55;;;0.50;;
27618;SDS011;15039;50.830;4.730;2023-11-18T13:52:15;1.15;;;0.60;;
27618;SDS011;15039;50.830;4.730;2023-11-18T13:57:24;1.27;;;0.52;;
27618;SDS011;15039;50.830;4.730;2023-11-18T13:59:50;0.70;;;0.70;;
27618;SDS011;15039;50.830;4.730;2023-11-18T14:02:16;0.43;;;0.43;;
27618;SDS011;15039;50.830;4.730;2023-11-18T14:04:42;0.50;;;0.50;;
27618;SDS011;15039;50.830;4.730;2023-11-18T14:07:09;0.50;;;0.50;;
27618;SDS011;15039;50.830;4.730;2023-11-18T14:09:41;0.90;;;0.50;;
27618;SDS011;15039;50.830;4.730;2023-11-18T14:12:10;0.40;;;0.40;;
27618;SDS011;15039;50.830;4.730;2023-11-18T14:14:36;0.55;;;0.55;;
27618;SDS011;15039;50.830;4.730;2023-11-18T14:17:03;0.85;;;0.57;;
27618;SDS011;15039;50.830;4.730;2023-11-18T14:22:00;0.40;;;0.40;;
27618;SDS011;15039;50.830;4.730;2023-11-18T14:24:26;0.40;;;0.40;;
27618;SDS011;15039;50.830;4.730;2023-11-18T14:26:53;0.47;;;0.47;;
27618;SDS011;15039;50.830;4.730;2023-11-18T14:29:19;0.60;;;0.50;;
27618;SDS011;15039;50.830;4.730;2023-11-18T14:31:45;0.30;;;0.30;;
27618;SDS011;15039;50.830;4.730;2023-11-18T14:34:11;0.85;;;0.50;;
27618;SDS011;15039;50.830;4.730;2023-11-18T14:36:38;0.60;;;0.60;;
27618;SDS011;15039;50.830;4.730;2023-11-18T14:39:04;0.50;;;0.50;;
27618;SDS011;15039;50.830;4.730;2023-11-18T14:41:30;0.45;;;0.43;;
27618;SDS011;15039;50.830;4.730;2023-11-18T14:43:59;0.60;;;0.60;;
27618;SDS011;15039;50.830;4.730;2023-11-18T14:46:29;0.68;;;0.68;;
27618;SDS011;15039;50.830;4.730;2023-11-18T14:48:56;1.02;;;0.70;;
27618;SDS011;15039;50.830;4.730;2023-11-18T14:51:22;1.25;;;0.63;;
27618;SDS011;15039;50.830;4.730;2023-11-18T14:53:48;0.60;;;0.60;;
27618;SDS011;15039;50.830;4.730;2023-11-18T14:56:13;0.75;;;0.70;;
27618;SDS011;15039;50.830;4.730;2023-11-18T14:58:40;2.15;;;0.70;;
27618;SDS011;15039;50.830;4.730;2023-11-18T15:01:06;1.17;;;0.70;;
27618;SDS011;15039;50.830;4.730;2023-11-18T15:03:35;1.17;;;0.80;;
27618;SDS011;15039;50.830;4.730;2023-11-18T15:06:01;1.15;;;0.80;;
27618;SDS011;15039;50.830;4.730;2023-11-18T15:08:27;0.70;;;0.55;;
27618;SDS011;15039;50.830;4.730;2023-11-18T15:10:52;0.50;;;0.50;;
27618;SDS011;15039;50.830;4.730;2023-11-18T15:13:19;1.42;;;1.33;;
27618;SDS011;15039;50.830;4.730;2023-11-18T15:15:45;0.45;;;0.45;;
27618;SDS011;15039;50.830;4.730;2023-11-18T15:18:12;0.50;;;0.50;;
27618;SDS011;15039;50.830;4.730;2023-11-18T15:20:42;0.50;;;0.50;;
27618;SDS011;15039;50.830;4.730;2023-11-18T15:23:09;0.55;;;0.55;;
27618;SDS011;15039;50.830;4.730;2023-11-18T15:25:35;1.05;;;0.50;;
27618;SDS011;15039;50.830;4.730;2023-11-18T15:28:01;0.55;;;0.55;;
27618;SDS011;15039;50.830;4.730;2023-11-18T15:30:27;0.82;;;0.60;;
27618;SDS011;15039;50.830;4.730;2023-11-18T15:32:53;0.40;;;0.40;;
27618;SDS011;15039;50.830;4.730;2023-11-18T15:35:18;0.70;;;0.70;;
27618;SDS011;15039;50.830;4.730;2023-11-18T15:37:46;0.60;;;0.60;;
27618;SDS011;15039;50.830;4.730;2023-11-18T15:40:16;0.85;;;0.80;;
27618;SDS011;15039;50.830;4.730;2023-11-18T15:42:47;0.68;;;0.68;;
27618;SDS011;15039;50.830;4.730;2023-11-18T15:45:19;0.70;;;0.70;;
27618;SDS011;15039;50.830;4.730;2023-11-18T15:47:47;0.73;;;0.73;;
27618;SDS011;15039;50.830;4.730;2023-11-18T15:50:13;0.70;;;0.70;;
27618;SDS011;15039;50.830;4.730;2023-11-18T15:52:47;0.75;;;0.75;;
27618;SDS011;15039;50.830;4.730;2023-11-18T15:55:14;0.85;;;0.80;;
27618;SDS011;15039;50.830;4.730;2023-11-18T15:57:42;0.70;;;0.70;;
27618;SDS011;15039;50.830;4.730;2023-11-18T16:00:12;1.00;;;0.90;;